Strona główna
METAR-TAF:

METAR-TAF

Lotnisko :

Joliet Regional Airport

Joliet, Illinois, Stany Zjednoczone

Szerokość geograficzna: 41-31-05N, Długość geograficzna: 088-10-31W, wysokość: 177 m

Aktualna obserwacja pogody

Raport powstał 25 minut temu, godzina 12:55 UTC
Wiatr 6 kt od południowo-południowy zachód
Temperatura 2°C
Wilgotność 100%
Ciśnienie 1006 hPa
Widzialność: 4.0 km
Zachmurzenie całkowite na wysokości 300 ft
mżawka

METAR: KJOT 181255Z AUTO 20006KT 2 1/2SM DZ OVC003 02/02 A2971 RMK AO2 T00220017

czas: 07:20 (13:20 UTC)


TAF: brakujący

Obserwacja i prognoza pogody dla ponad 4000 lotnisk (raport METAR i TAF).

Dostępne stacje oznaczono żółtymi i czerwonymi punktami na mapie.

Najedź kursorem aby zobaczyć nazwę stacji.

Kliknij aby zobaczyć obserwacje i prognozy pogody.

Aby zmienić mapę: kliknij na zielony przycisk z czarnym krzyżykiem, aby powiększyć; na zielony przycisk z myślnikiem, aby pomniejszyć; na zielone strzałki, aby przejść do map sąsiednich.


METAR-TAF: